Flight Track Log - Related Links

Times and Time Zones

All times are in EDT time to prevent confusion due to time zone crossing. See the UAL623 flight status page for this flight to view local times or setup timezone preferences in your user account.

Time Position Orientation Groundspeed Altitude Reporting Facility
EDT Latitude Longitude Course Direction KTS MPH feet Rate Location/Type
Mon 02:12:48 PM 28.4500 -81.3167 360° North 154 177 800  Level Orlando TRACON
Mon 02:13:36 PM 28.4833 -81.3167 360° North 157 181 3,000 2,056 Climbing Orlando TRACON
Mon 02:14:36 PM 28.5333 -81.3000 16° North 231 266 4,500 2,048 Climbing Orlando TRACON
Mon 02:15:42 PM 28.6167 -81.3000 360° North 285 328 7,300 2,689 Climbing Orlando TRACON
Mon 02:17:39 PM 28.7397 -81.3583 337° Northwest 274 315 12,700 2,393 Climbing Jacksonville Center
Mon 02:18:40 PM 28.8236 -81.3972 338° Northwest 293 337 14,400 1,900 Climbing Jacksonville Center
Mon 02:19:39 PM 28.9200 -81.4289 344° North 329 379 16,500 2,250 Climbing Jacksonville Center
Mon 02:20:40 PM 29.0186 -81.4631 343° North 357 411 18,900 2,132 Climbing Jacksonville Center
Mon 02:21:40 PM 29.1253 -81.4997 343° North 378 435 20,800 1,950 Climbing Jacksonville Center
Mon 02:22:40 PM 29.2261 -81.5433 339° North 390 449 22,800 2,050 Climbing Jacksonville Center
Mon 02:23:40 PM 29.3350 -81.5800 344° North 395 455 24,900 1,850 Climbing Jacksonville Center
Mon 02:24:40 PM 29.4417 -81.6167 343° North 395 455 26,500 1,450 Climbing Jacksonville Center
Mon 02:25:40 PM 29.5486 -81.6558 342° North 395 455 27,800 1,400 Climbing Jacksonville Center
Mon 02:26:40 PM 29.6639 -81.6975 343° North 409 471 29,300 1,450 Climbing Jacksonville Center
Mon 02:27:40 PM 29.7747 -81.7344 344° North 414 476 30,700 1,600 Climbing Jacksonville Center
Mon 02:28:40 PM 29.8836 -81.7764 342° North 414 476 32,500 1,815 Climbing Jacksonville Center
Mon 02:29:39 PM 29.9925 -81.8108 345° North 414 476 34,300 1,900 Climbing Jacksonville Center
Mon 02:30:40 PM 30.1158 -81.8217 356° North 398 458 36,300 1,289 Climbing Jacksonville Center
Mon 02:31:40 PM 30.2244 -81.8325 355° North 385 443 36,900 300 Climbing Jacksonville Center
Mon 02:32:40 PM 30.3353 -81.8433 355° North 395 455 36,900  Level Jacksonville Center
Mon 02:33:40 PM 30.4503 -81.8517 356° North 406 467 36,900 50 Level Jacksonville Center
Mon 02:34:40 PM 30.5736 -81.8694 353° North 420 483 37,000  Climbing Jacksonville Center
Mon 02:35:40 PM 30.6864 -81.8806 355° North 425 489 36,900 -50 Descending Jacksonville Center
Mon 02:36:40 PM 30.8014 -81.8914 355° North 420 483 36,900 50 Level Jacksonville Center
Mon 02:37:40 PM 30.9142 -81.9022 355° North 420 483 37,000 50 Climbing Jacksonville Center
Mon 02:38:40 PM 31.0311 -81.9156 354° North 420 483 37,000  Level Jacksonville Center
Mon 02:39:40 PM 31.1481 -81.9239 357° North 420 483 37,000  Level Jacksonville Center
Mon 02:40:40 PM 31.2631 -81.9325 356° North 420 483 37,000  Level Jacksonville Center
Mon 02:41:40 PM 31.3653 -81.9411 356° North 420 483 37,000  Level Jacksonville Center
Mon 02:42:40 PM 31.4950 -81.9522 356° North 426 490 37,000  Level Jacksonville Center
Mon 02:43:40 PM 31.6097 -81.9631 355° North 426 490 37,000  Level Jacksonville Center
Mon 02:44:40 PM 31.7206 -81.9742 355° North 426 490 37,000  Level Jacksonville Center
Mon 02:45:40 PM 31.8500 -81.9875 355° North 426 490 37,000  Level Jacksonville Center
Mon 02:47:56 PM 32.1033 -82.0086 356° North 419 482 37,000  Level Atlanta Center
Mon 02:48:56 PM 32.2183 -82.0208 355° North 419 482 37,000  Level Atlanta Center
Mon 02:49:55 PM 32.3292 -82.0306 356° North 405 466 37,000  Level Atlanta Center
Mon 02:50:56 PM 32.4442 -82.0403 356° North 405 466 37,000 50 Level Atlanta Center
Mon 02:51:56 PM 32.5550 -82.0525 355° North 405 466 37,100  Climbing Atlanta Center
Mon 02:52:56 PM 32.6658 -82.0625 356° North 405 466 37,000 500 Descending Atlanta Center
Mon 02:53:56 PM 32.7786 -82.0747 355° North 405 466 38,100 850 Climbing Atlanta Center
Mon 02:54:56 PM 32.8833 -82.0847 355° North 393 452 38,700 450 Climbing Atlanta Center
Mon 02:55:56 PM 32.9919 -82.0922 357° North 387 445 39,000 150 Climbing Atlanta Center
Mon 02:56:56 PM 33.0986 -82.1047 354° North 387 445 39,000  Level Atlanta Center
Mon 02:57:56 PM 33.2053 -82.1147 356° North 387 445 39,000  Level Atlanta Center
Mon 02:58:56 PM 33.3264 -82.1269 355° North 387 445 39,000  Level Atlanta Center
Mon 02:59:56 PM 33.4331 -82.1344 357° North 387 445 39,000  Level Atlanta Center
Mon 03:00:56 PM 33.5417 -82.1447 355° North 387 445 39,000  Level Atlanta Center
Mon 03:01:56 PM 33.6503 -82.1547 356° North 387 445 39,000  Level Atlanta Center
Mon 03:02:56 PM 33.7589 -82.1597 358° North 387 445 39,000  Level Atlanta Center
Mon 03:03:56 PM 33.8717 -82.1625 359° North 387 445 39,000  Level Atlanta Center
Mon 03:04:56 PM 33.9825 -82.1650 359° North 387 445 39,000  Level Atlanta Center
Mon 03:05:56 PM 34.0950 -82.1650 360° North 392 451 39,000  Level Atlanta Center
Mon 03:06:56 PM 34.1953 -82.1653 360° North 400 460 39,000  Level Atlanta Center
Mon 03:07:56 PM 34.3100 -82.1653 360° North 400 460 39,000  Level Atlanta Center
Mon 03:08:55 PM 34.4250 -82.1653 360° North 400 460 39,000  Level Atlanta Center
Mon 03:09:56 PM 34.5375 -82.1653 360° North 405 466 39,000  Level Atlanta Center
Mon 03:10:56 PM 34.6525 -82.1703 358° North 405 466 39,000 -50 Level Atlanta Center
Mon 03:11:56 PM 34.7650 -82.1703 360° North 405 466 38,900  Descending Atlanta Center
Mon 03:12:56 PM 34.8819 -82.1700 360° North 405 466 39,000 50 Climbing Atlanta Center
Mon 03:13:56 PM 34.9989 -82.1750 358° North 405 466 39,000  Level Atlanta Center
Mon 03:14:56 PM 35.1178 -82.1775 359° North 413 475 39,000  Level Atlanta Center
Mon 03:15:56 PM 35.2369 -82.1775 360° North 427 491 39,000  Level Atlanta Center
Mon 03:16:56 PM 35.3536 -82.1747 North 422 486 39,000  Level Atlanta Center
Mon 03:17:56 PM 35.4831 -82.1769 359° North 422 486 39,000 -50 Level Atlanta Center
Mon 03:18:56 PM 35.6019 -82.1794 359° North 422 486 38,900  Descending Atlanta Center
Mon 03:19:56 PM 35.7167 -82.1792 360° North 422 486 39,000 50 Climbing Atlanta Center
Mon 03:20:55 PM 35.8314 -82.1792 360° North 422 486 39,000  Level Atlanta Center
Mon 03:21:56 PM 35.9483 -82.1792 360° North 415 478 39,000  Level Atlanta Center
Mon 03:22:55 PM 36.0631 -82.1792 360° North 415 478 39,000  Level Atlanta Center
Mon 03:23:55 PM 36.1819 -82.1789 360° North 416 479 39,000  Level Atlanta Center
Mon 03:24:55 PM 36.2800 -82.1792 360° North 408 470 39,000  Level Atlanta Center
Mon 03:27:25 PM 36.5714 -82.1800 360° North 418 481 39,000  Level Indianapolis Center
Mon 03:28:27 PM 36.6878 -82.1814 359° North 420 483 39,000  Level Indianapolis Center
Mon 03:29:29 PM 36.8042 -82.1817 360° North 419 482 39,000  Level Indianapolis Center
Mon 03:30:31 PM 36.9394 -82.1831 360° North 418 481 39,000  Level Indianapolis Center
Mon 03:31:33 PM 37.0533 -82.1847 359° North 412 474 39,000 -339 Level Indianapolis Center
Mon 03:32:35 PM 37.1664 -82.1858 360° North 408 470 38,300 -629 Descending Indianapolis Center
Mon 03:33:37 PM 37.2794 -82.1872 359° North 407 468 37,700 -629 Descending Indianapolis Center
Mon 03:34:39 PM 37.3883 -82.1872 360° North 394 453 37,000 -339 Descending Indianapolis Center
Mon 03:35:41 PM 37.5144 -82.1886 359° North 387 445 37,000  Level Indianapolis Center
Mon 03:36:42 PM 37.6244 -82.1883 360° North 393 452 37,000  Level Indianapolis Center
Mon 03:37:44 PM 37.7350 -82.1903 359° North 398 458 37,000  Level Indianapolis Center
Mon 03:38:46 PM 37.8422 -82.1903 360° North 390 449 37,000  Level Indianapolis Center
Mon 03:40:00 PM 37.9773 -82.1833 North  Level FlightAware Approximate
Mon 03:40:50 PM 38.0764 -82.1919 North 389 448 37,000  Level Indianapolis Center
Mon 03:41:52 PM 38.1864 -82.1925 360° North 391 450 36,500 -532 Descending Indianapolis Center
Mon 03:42:54 PM 38.2914 -82.1931 360° North 381 438 35,900 -629 Descending Indianapolis Center
Mon 03:43:56 PM 38.3944 -82.1922 360° North 371 427 35,200 -484 Descending Indianapolis Center
Mon 03:44:58 PM 38.4992 -82.1878 North 373 429 34,900 -242 Descending Indianapolis Center
Mon 03:46:00 PM 38.6039 -82.1844 North 373 429 34,700 -339 Descending Indianapolis Center
Mon 03:47:02 PM 38.7056 -82.1817 North 366 421 34,200 -387 Descending Indianapolis Center
Mon 03:48:04 PM 38.8081 -82.1794 North 365 420 33,900 -97 Descending Indianapolis Center
Mon 03:49:06 PM 38.9111 -82.1756 North 367 422 34,000 49 Climbing Indianapolis Center
Mon 03:50:07 PM 39.0347 -82.1739 North 367 422 34,000  Level Indianapolis Center
Mon 03:51:09 PM 39.1378 -82.1697 North 368 423 34,000  Level Indianapolis Center
Mon 03:52:11 PM 39.2408 -82.1661 North 369 425 34,000 -290 Level Indianapolis Center
Mon 03:53:13 PM 39.3411 -82.1625 North 361 415 33,400 -774 Descending Indianapolis Center
Mon 03:54:15 PM 39.4417 -82.1592 North 360 414 32,400 -1,065 Descending Indianapolis Center
Mon 03:55:17 PM 39.5375 -82.1564 North 353 406 31,200 -2,129 Descending Indianapolis Center
Mon 03:56:19 PM 39.6525 -82.1517 North 351 404 28,000 -2,903 Descending Indianapolis Center
Mon 03:57:21 PM 39.7469 -82.1506 North 341 392 25,200 -2,244 Descending Indianapolis Center
Mon 03:58:22 PM 39.8392 -82.1464 North 331 381 23,400 -1,366 Descending Indianapolis Center
Mon 03:59:24 PM 39.9272 -82.1442 North 319 367 22,400 -968 Descending Indianapolis Center
Mon 04:00:26 PM 40.0194 -82.1406 North 324 373 21,400 -1,016 Descending Indianapolis Center
Mon 04:01:28 PM 40.1089 -82.1372 North 321 369 20,300 -1,016 Descending Indianapolis Center
Mon 04:02:30 PM 40.2014 -82.1356 North 327 376 19,300 -968 Descending Indianapolis Center
Mon 04:03:32 PM 40.2942 -82.1331 North 321 369 18,300 -919 Descending Indianapolis Center
Mon 04:04:34 PM 40.3875 -82.1300 North 332 382 17,400 -942 Descending Indianapolis Center
Mon 04:05:33 PM 40.4800 -82.1064 11° North 332 382 16,400 -1,059 Descending Cleveland Center
Mon 04:06:33 PM 40.5542 -82.0314 38° Northeast 322 371 15,300 -1,100 Descending Cleveland Center
Mon 04:07:33 PM 40.6322 -81.9539 37° Northeast 340 391 14,200 -1,113 Descending Cleveland Center
Mon 04:08:10 PM 40.6847 -81.9056 35° Northeast 346 398 13,500 -1,100 Descending Cleveland Center
Mon 04:08:33 PM 40.7061 -81.8786 44° Northeast 345 397 13,100 -1,084 Descending Cleveland Center
Mon 04:09:33 PM 40.7903 -81.7981 36° Northeast 346 398 12,000 -1,122 Descending Cleveland Center
Mon 04:10:36 PM 40.8744 -81.7144 37° Northeast 346 398 10,800 -1,050 Descending Cleveland Center
Mon 04:11:33 PM 40.9439 -81.6442 37° Northeast 346 398 9,900 -462 Descending Cleveland Center
Mon 04:12:33 PM 41.0333 -81.6622 351° North 299 344 9,900 -548 Level Cleveland Center
Mon 04:14:39 PM 41.1975 -81.7172 346° North 256 295 8,200 -1,067 Descending Cleveland Center
Mon 04:15:33 PM 41.2664 -81.7158 North 266 306 6,700 -1,632 Descending Cleveland Center
Mon 04:16:33 PM 41.3311 -81.6975 12° North 266 306 5,100 -1,350 Descending Cleveland Center
Mon 04:17:33 PM 41.4022 -81.6794 11° North 261 300 4,000 -756 Descending Cleveland Center
Mon 04:18:48 PM 41.4772 -81.6944 351° North 205 236 3,400 -638 Descending Cleveland Center
Mon 04:19:54 PM 41.4681 -81.7664 260° West 174 200 2,500 -803 Descending Cleveland Center
Mon 04:20:55 PM 41.4406 -81.8075 228° Southwest 128 147 1,700 -787 Descending Cleveland Center

Login

Don't have an account? Register now (free) for customized features, flight alerts, and more!